Arvilla, North Dakota
Current Conditions -  °F | °C
As of 6:58 AM on Friday 19 Dec 2014 (Local Time) from KRDR Reporting Station
Haze Haze  
Wind Chill: -11°   Ceiling: 400
Heat Index: -5°   Visibility: 5mi
Dew Point: -5°   Wind: 10mph
Humidity: 100%   Direction: 160°SSE
Pressure: 30.06"   Gusts: NA
Location:  47.92°N, 97.49°W
Report Text: KRDR 191258Z AUTO 16009KT 5SM R17/4500FT BR OVC004 M05/M05 A3006 RMK AO2 SLP201 T10531053
Loading
Personal Weather Stations






























Interactive Weather Map New forecast layout! Learn more

10-Day Weather Forecast

Advertisements
Track Severe Weather on mobile